createdAt,value
2024-04-02T00:01:40.805Z,96147.29
2024-04-02T00:04:15.840Z,96152.27
2024-04-02T00:06:47.284Z,96153.22
2024-04-02T00:09:17.815Z,96158.55
2024-04-02T00:11:48.493Z,96158.97
2024-04-02T00:14:18.933Z,96168.42
2024-04-02T00:16:49.800Z,96174.15
2024-04-02T00:19:20.463Z,96179.14
2024-04-02T00:21:51.276Z,96182.57
2024-04-02T00:24:21.807Z,96177.02
2024-04-02T00:26:52.453Z,96163.58
2024-04-02T00:29:23.102Z,96166.48
2024-04-02T00:31:53.819Z,96172.02
2024-04-02T00:34:24.449Z,96180.13
2024-04-02T00:36:55.323Z,96183.45
2024-04-02T00:39:25.905Z,96197.05
2024-04-02T00:41:56.570Z,96194.61
2024-04-02T00:44:27.403Z,96194.06
2024-04-02T00:46:58.958Z,96197.92
2024-04-02T00:49:30.142Z,96208.23
2024-04-02T00:52:01.212Z,96226.26
2024-04-02T00:54:33.284Z,96230.06
2024-04-02T00:57:06.365Z,96229.52
2024-04-02T00:59:38.106Z,96229.02
2024-04-02T01:02:09.343Z,96219.13
2024-04-02T01:04:40.612Z,96214.70
2024-04-02T01:07:11.937Z,96225.21
2024-04-02T01:09:44.282Z,96230.00
2024-04-02T01:12:15.143Z,96232.84
2024-04-02T01:14:46.278Z,96240.36
2024-04-02T01:17:18.162Z,96239.13
2024-04-02T01:19:49.486Z,96236.13
2024-04-02T01:22:20.202Z,96238.55
2024-04-02T01:24:59.156Z,96239.36
2024-04-02T01:27:30.682Z,96239.27
2024-04-02T01:30:01.445Z,96240.97
2024-04-02T01:32:35.513Z,96246.61
2024-04-02T01:35:06.826Z,96247.34
2024-04-02T01:37:37.558Z,96247.52
2024-04-02T01:40:10.050Z,96244.42
2024-04-02T01:42:40.957Z,96246.40
2024-04-02T01:45:12.914Z,96248.48
2024-04-02T01:47:43.720Z,96242.79
2024-04-02T01:50:12.938Z,96246.88
2024-04-02T01:52:43.677Z,96246.98
2024-04-02T01:55:14.409Z,96244.12
2024-04-02T01:57:45.476Z,96243.50
2024-04-02T02:00:17.896Z,96240.41
2024-04-02T02:02:51.284Z,96242.27
2024-04-02T02:05:21.939Z,96244.08
2024-04-02T02:07:52.626Z,96245.92
2024-04-02T02:10:23.298Z,96246.54
2024-04-02T02:12:54.033Z,96246.05
2024-04-02T02:15:25.001Z,96246.70
2024-04-02T02:17:55.597Z,96243.52
2024-04-02T02:20:26.368Z,96238.61
2024-04-02T02:22:57.008Z,96239.02
2024-04-02T02:25:28.284Z,96235.52
2024-04-02T02:27:58.956Z,96244.56
2024-04-02T02:30:29.582Z,96253.79
2024-04-02T02:33:00.334Z,96254.60
2024-04-02T02:35:31.134Z,96249.92
2024-04-02T02:38:01.973Z,96258.39
2024-04-02T02:40:34.258Z,96260.56
2024-04-02T02:43:05.037Z,96263.69
2024-04-02T02:45:35.807Z,96266.34
2024-04-02T02:48:07.498Z,96268.73
2024-04-02T02:50:38.296Z,96273.92
2024-04-02T02:53:09.111Z,96280.19
2024-04-02T02:55:39.894Z,96280.45
2024-04-02T02:58:10.348Z,96290.39
2024-04-02T03:00:42.616Z,96291.11
2024-04-02T03:03:14.044Z,96295.27
2024-04-02T03:05:54.609Z,96298.09
2024-04-02T03:08:25.780Z,96302.09
2024-04-02T03:11:02.380Z,96305.96
2024-04-02T03:13:32.248Z,96308.44
2024-04-02T03:16:03.682Z,96310.80
2024-04-02T03:18:36.269Z,96315.88
2024-04-02T03:21:07.013Z,96324.52
2024-04-02T03:23:37.777Z,96328.23
2024-04-02T03:26:08.658Z,96327.13
2024-04-02T03:28:40.181Z,96332.27
2024-04-02T03:31:11.102Z,96340.98
2024-04-02T03:33:41.649Z,96344.34
2024-04-02T03:36:12.745Z,96342.06
2024-04-02T03:38:43.503Z,96343.79
2024-04-02T03:41:15.587Z,96344.06
2024-04-02T03:43:46.735Z,96345.05
2024-04-02T03:46:17.647Z,96341.23
2024-04-02T03:48:49.921Z,96341.85
2024-04-02T03:51:20.557Z,96337.96
2024-04-02T03:53:51.438Z,96334.92
2024-04-02T03:56:22.169Z,96337.81
2024-04-02T03:58:52.858Z,96341.06
2024-04-02T04:01:23.549Z,96341.48
2024-04-02T04:03:54.118Z,96339.30
2024-04-02T04:06:24.948Z,96337.31
2024-04-02T04:08:55.689Z,96340.35
2024-04-02T04:11:28.901Z,96335.50
2024-04-02T04:14:01.619Z,96336.73
2024-04-02T04:16:32.386Z,96339.91
2024-04-02T04:19:03.493Z,96333.24
2024-04-02T04:21:32.844Z,96332.28
2024-04-02T04:24:03.683Z,96329.27
2024-04-02T04:26:34.341Z,96325.14
2024-04-02T04:29:04.807Z,96323.73
2024-04-02T04:31:35.823Z,96325.58
2024-04-02T04:34:05.121Z,96327.56
2024-04-02T04:36:35.842Z,96327.88
2024-04-02T04:39:06.785Z,96325.89
2024-04-02T04:41:37.449Z,96324.05
2024-04-02T04:44:08.300Z,96322.27
2024-04-02T04:46:39.535Z,96323.09
2024-04-02T04:49:10.270Z,96323.14
2024-04-02T04:51:41.056Z,96321.81
2024-04-02T04:54:12.090Z,96331.75
2024-04-02T04:56:42.618Z,96341.65
2024-04-02T04:59:13.507Z,96346.25
2024-04-02T05:01:44.127Z,96351.55
2024-04-02T05:04:14.820Z,96358.55
2024-04-02T05:06:45.518Z,96358.27
2024-04-02T05:09:16.180Z,96361.05
2024-04-02T05:11:46.806Z,96363.63
2024-04-02T05:14:17.511Z,96371.87
2024-04-02T05:16:48.259Z,96370.69
2024-04-02T05:19:18.723Z,96374.89
2024-04-02T05:21:49.308Z,96380.58
2024-04-02T05:24:19.838Z,96388.67
2024-04-02T05:26:50.368Z,96390.86
2024-04-02T05:29:21.066Z,96386.63
2024-04-02T05:31:51.627Z,96394.33
2024-04-02T05:34:22.492Z,96398.82
2024-04-02T05:36:53.234Z,96402.98
2024-04-02T05:39:24.144Z,96407.08
2024-04-02T05:41:55.741Z,96405.88
2024-04-02T05:44:26.292Z,96407.41
2024-04-02T05:46:57.058Z,96412.23
2024-04-02T05:49:27.928Z,96407.95
2024-04-02T05:51:58.519Z,96403.92
2024-04-02T05:54:29.367Z,96409.37
2024-04-02T05:57:00.330Z,96407.83
2024-04-02T05:59:31.972Z,96416.71
2024-04-02T06:02:02.743Z,96412.01
2024-04-02T06:04:33.378Z,96409.47
2024-04-02T06:07:04.018Z,96406.73
2024-04-02T06:09:35.255Z,96411.63
2024-04-02T06:12:04.711Z,96411.61
2024-04-02T06:14:36.540Z,96410.07
2024-04-02T06:17:09.918Z,96415.66
2024-04-02T06:19:40.864Z,96415.59
2024-04-02T06:22:11.573Z,96404.82
2024-04-02T06:24:42.375Z,96418.30
2024-04-02T06:27:13.183Z,96415.72
2024-04-02T06:29:43.994Z,96419.30
2024-04-02T06:32:14.744Z,96414.40
2024-04-02T06:34:45.408Z,96416.23
2024-04-02T06:37:16.006Z,96416.70
2024-04-02T06:39:46.611Z,96421.72
2024-04-02T06:42:17.385Z,96421.08
2024-04-02T06:44:47.957Z,96425.97
2024-04-02T06:47:18.479Z,96427.50
2024-04-02T06:49:49.446Z,96433.48
2024-04-02T06:52:20.081Z,96436.52
2024-04-02T06:54:50.629Z,96440.63
2024-04-02T06:57:21.209Z,96445.63
2024-04-02T06:59:51.857Z,96448.09
2024-04-02T07:02:23.026Z,96452.69
2024-04-02T07:04:53.749Z,96449.43
2024-04-02T07:07:25.539Z,96448.52
2024-04-02T07:09:56.479Z,96445.89
2024-04-02T07:12:25.959Z,96451.54
2024-04-02T07:14:56.556Z,96460.68
2024-04-02T07:17:27.324Z,96465.96
2024-04-02T07:19:58.430Z,96460.91
2024-04-02T07:22:29.082Z,96467.13
2024-04-02T07:25:00.188Z,96468.92
2024-04-02T07:27:35.185Z,96471.00
2024-04-02T07:30:06.733Z,96473.64
2024-04-02T07:32:37.425Z,96471.36
2024-04-02T07:35:45.961Z,96469.07
2024-04-02T07:38:33.441Z,96467.89
2024-04-02T07:41:06.003Z,96470.88
2024-04-02T07:47:38.782Z,96476.10
2024-04-02T07:50:48.508Z,96476.55
2024-04-02T07:53:19.332Z,96480.21
2024-04-02T07:55:49.919Z,96481.84
2024-04-02T07:58:20.519Z,96483.63
2024-04-02T08:00:51.128Z,96482.76
2024-04-02T08:03:21.767Z,96481.39
2024-04-02T08:05:59.975Z,96488.05
2024-04-02T08:08:32.108Z,96483.61
2024-04-02T08:11:02.609Z,96489.53
2024-04-02T08:13:33.162Z,96493.77
2024-04-02T08:16:04.761Z,96494.23
2024-04-02T08:18:35.993Z,96490.69
2024-04-02T08:21:07.586Z,96491.15
2024-04-02T08:23:38.177Z,96492.31
2024-04-02T08:26:08.795Z,96489.00
2024-04-02T08:28:39.414Z,96487.27
2024-04-02T08:31:10.013Z,96494.33
2024-04-02T08:33:40.650Z,96488.98
2024-04-02T08:36:11.734Z,96493.44
2024-04-02T08:38:42.562Z,96494.81
2024-04-02T08:41:14.907Z,96492.76
2024-04-02T08:43:48.035Z,96498.44
2024-04-02T08:46:18.762Z,96503.56
2024-04-02T08:48:50.570Z,96501.20
2024-04-02T08:51:22.243Z,96508.65
2024-04-02T08:53:52.810Z,96502.53
2024-04-02T08:56:23.475Z,96504.60
2024-04-02T08:59:12.513Z,96499.21
2024-04-02T09:01:43.619Z,96504.48
2024-04-02T09:04:14.783Z,96501.84
2024-04-02T09:06:45.378Z,96489.70
2024-04-02T09:09:24.158Z,96492.08
2024-04-02T09:11:55.405Z,96492.73
2024-04-02T09:14:26.241Z,96494.58
2024-04-02T09:16:56.993Z,96498.80
2024-04-02T09:19:28.690Z,96494.64
2024-04-02T09:21:59.396Z,96497.13
2024-04-02T09:24:29.924Z,96496.42
2024-04-02T09:27:00.541Z,96494.90
2024-04-02T09:29:32.296Z,96501.95
2024-04-02T09:32:03.594Z,96508.41
2024-04-02T09:34:36.414Z,96496.93
2024-04-02T09:37:22.290Z,96500.94
2024-04-02T09:39:54.479Z,96499.88
2024-04-02T09:42:25.930Z,96506.33
2024-04-02T09:44:59.563Z,96510.37
2024-04-02T09:47:31.158Z,96507.67
2024-04-02T09:50:06.296Z,96498.45
2024-04-02T09:52:37.389Z,96511.04
2024-04-02T09:55:10.384Z,96515.53
2024-04-02T09:57:41.353Z,96519.94
2024-04-02T10:00:13.584Z,96526.38
2024-04-02T10:02:44.608Z,96525.14
2024-04-02T10:05:22.270Z,96522.21
2024-04-02T10:07:54.066Z,96528.86
2024-04-02T10:10:31.405Z,96527.23
2024-04-02T10:13:08.415Z,96525.70
2024-04-02T10:15:39.278Z,96525.63
2024-04-02T10:18:09.884Z,96524.54
2024-04-02T10:20:40.763Z,96532.36
2024-04-02T10:23:11.625Z,96533.66
2024-04-02T10:25:43.849Z,96531.23
2024-04-02T10:28:14.864Z,96530.27
2024-04-02T10:30:48.155Z,96531.42
2024-04-02T10:33:22.427Z,96534.02
2024-04-02T10:35:55.350Z,96533.63
2024-04-02T10:38:26.321Z,96528.23
2024-04-02T10:40:57.760Z,96532.73
2024-04-02T10:43:28.595Z,96526.31
2024-04-02T10:45:59.363Z,96538.17
2024-04-02T10:48:30.251Z,96539.83
2024-04-02T10:50:59.285Z,96536.92
2024-04-02T10:53:29.827Z,96539.05
2024-04-02T10:56:04.836Z,96547.67
2024-04-02T10:58:35.943Z,96548.73
2024-04-02T11:01:07.076Z,96549.80
2024-04-02T11:03:38.723Z,96552.24
2024-04-02T11:06:12.111Z,96543.71
2024-04-02T11:08:44.828Z,96549.41
2024-04-02T11:11:23.149Z,96573.02
2024-04-02T11:13:53.956Z,96563.88
2024-04-02T11:16:24.432Z,96552.13
2024-04-02T11:18:58.345Z,96549.32
2024-04-02T11:21:30.670Z,96560.98
2024-04-02T11:24:19.141Z,96558.06
2024-04-02T11:26:52.632Z,96561.95
2024-04-02T11:29:24.374Z,96562.91
2024-04-02T11:31:55.600Z,96569.52
2024-04-02T11:34:26.489Z,96571.02
2024-04-02T11:36:55.591Z,96571.09
2024-04-02T11:39:26.530Z,96577.42
2024-04-02T11:41:57.161Z,96566.14
2024-04-02T11:44:28.836Z,96562.23
2024-04-02T11:46:59.338Z,96560.75
2024-04-02T11:49:30.165Z,96562.23
2024-04-02T11:52:00.747Z,96569.50
2024-04-02T11:54:30.019Z,96574.77
2024-04-02T11:57:18.716Z,96567.75
2024-04-02T18:55:57.757Z,96779.73
2024-04-02T18:58:28.738Z,96785.27
2024-04-02T19:01:04.197Z,96783.10
2024-04-02T19:03:35.251Z,96785.25
2024-04-02T19:06:07.506Z,96785.94
2024-04-02T19:08:38.653Z,96787.81
2024-04-02T19:11:11.395Z,96783.60
2024-04-02T19:13:42.503Z,96787.64
2024-04-02T19:16:12.211Z,96785.55
2024-04-02T19:18:44.689Z,96781.14
2024-04-02T19:21:15.609Z,96779.23
2024-04-02T19:23:46.328Z,96777.99
2024-04-02T19:26:17.473Z,96779.09
2024-04-02T19:31:28.537Z,96782.79
2024-04-02T19:33:59.226Z,96786.30
2024-04-02T19:39:52.822Z,96790.10
2024-04-02T19:42:24.200Z,96793.73
2024-04-02T19:44:55.828Z,96793.20
2024-04-02T19:47:27.345Z,96793.31
2024-04-02T19:49:58.085Z,96792.27
2024-04-02T19:52:28.675Z,96792.41
2024-04-02T19:54:59.754Z,96796.17
2024-04-02T19:57:32.604Z,96791.79
2024-04-02T20:00:03.827Z,96794.06
2024-04-02T20:02:35.486Z,96792.70
2024-04-02T20:05:07.157Z,96786.21
2024-04-02T20:07:37.853Z,96785.35
2024-04-02T20:10:09.789Z,96783.23
2024-04-02T20:12:41.151Z,96783.85
2024-04-02T20:15:13.181Z,96784.75
2024-04-02T20:17:43.776Z,96787.54
2024-04-02T20:20:14.382Z,96790.58
2024-04-02T20:22:44.913Z,96787.81
2024-04-02T20:25:15.728Z,96791.36
2024-04-02T20:27:48.209Z,96794.63
2024-04-02T20:30:19.365Z,96800.67
2024-04-02T20:32:50.140Z,96800.84
2024-04-02T20:35:20.659Z,96802.35
2024-04-02T20:37:51.394Z,96803.99
2024-04-02T20:40:21.977Z,96806.98
2024-04-02T20:42:52.650Z,96805.94
2024-04-02T20:45:23.302Z,96801.61
2024-04-02T20:48:03.425Z,96803.55
2024-04-02T20:50:40.584Z,96808.52
2024-04-02T20:53:11.365Z,96810.59
2024-04-02T20:55:42.098Z,96809.46
2024-04-02T20:58:12.773Z,96807.95
2024-04-02T21:00:43.375Z,96803.59
2024-04-02T21:03:14.189Z,96809.39
2024-04-02T21:05:45.004Z,96807.49
2024-04-02T21:08:16.053Z,96819.10
2024-04-02T21:10:45.211Z,96814.06
2024-04-02T21:13:15.663Z,96812.81
2024-04-02T21:15:46.199Z,96809.20
2024-04-02T21:18:19.399Z,96815.17
2024-04-02T21:20:56.178Z,96819.80
2024-04-02T21:23:26.753Z,96815.65
2024-04-02T21:26:01.189Z,96807.46
2024-04-02T21:28:32.183Z,96807.88
2024-04-02T21:31:04.772Z,96811.46
2024-04-02T21:33:35.394Z,96808.48
2024-04-02T21:36:07.334Z,96816.71
2024-04-02T21:38:37.928Z,96812.45
2024-04-02T21:41:08.825Z,96816.08
2024-04-02T21:43:39.653Z,96802.65
2024-04-02T21:46:11.123Z,96810.11
2024-04-02T21:48:43.238Z,96814.27
2024-04-02T21:51:17.086Z,96815.10
2024-04-02T21:53:47.642Z,96813.28
2024-04-02T21:56:18.251Z,96820.31
2024-04-02T21:58:49.275Z,96819.45
2024-04-02T22:01:18.487Z,96825.80
2024-04-02T22:03:49.047Z,96829.35
2024-04-02T22:06:19.920Z,96825.33
2024-04-02T22:08:50.513Z,96823.63
2024-04-02T22:11:21.278Z,96824.86
2024-04-02T22:13:52.863Z,96831.05
2024-04-02T22:16:23.524Z,96827.80
2024-04-02T22:18:54.159Z,96827.86
2024-04-02T22:21:24.775Z,96835.64
2024-04-02T22:23:55.493Z,96836.59
2024-04-02T22:26:26.135Z,96838.21
2024-04-02T22:28:56.726Z,96839.09
2024-04-02T22:31:27.293Z,96839.05
2024-04-02T22:33:57.887Z,96845.36
2024-04-02T22:36:29.287Z,96844.63
2024-04-02T22:39:00.359Z,96842.91
2024-04-02T22:41:29.650Z,96845.34
2024-04-02T22:44:00.232Z,96843.92
2024-04-02T22:46:30.962Z,96844.11
2024-04-02T22:49:01.876Z,96847.20
2024-04-02T22:51:32.580Z,96848.66
2024-04-02T22:54:03.161Z,96851.42
2024-04-02T22:56:33.998Z,96855.67
2024-04-02T22:59:04.393Z,96850.30
2024-04-02T23:01:35.054Z,96846.86
2024-04-02T23:04:06.132Z,96849.69
2024-04-02T23:06:36.953Z,96851.54
2024-04-02T23:09:07.704Z,96851.17
2024-04-02T23:11:38.958Z,96845.98
2024-04-02T23:14:10.416Z,96842.23
2024-04-02T23:16:41.094Z,96844.84
2024-04-02T23:19:11.775Z,96842.06
2024-04-02T23:21:42.503Z,96838.56
2024-04-02T23:24:13.096Z,96838.11
2024-04-02T23:26:43.847Z,96844.54
2024-04-02T23:29:14.881Z,96840.77
2024-04-02T23:31:45.708Z,96842.55
2024-04-02T23:34:16.519Z,96844.91
2024-04-02T23:36:47.219Z,96851.52
2024-04-02T23:39:16.531Z,96849.13
2024-04-02T23:41:47.760Z,96853.45
2024-04-02T23:44:16.879Z,96850.69
2024-04-02T23:46:47.811Z,96845.80
2024-04-02T23:49:18.362Z,96842.25
2024-04-02T23:51:49.266Z,96840.55
2024-04-02T23:54:19.847Z,96843.00
2024-04-02T23:56:52.031Z,96841.25
2024-04-02T23:59:23.052Z,96841.20
